Avare, Brazil

4:57 AM BRT on September 20, 2014 (GMT -0300)
Bauru | Change Station
CLOSE
Current Station
Airport
Location: Bauru,
Elevation: 2018 ft
Nearby Weather Stations

Elev 2018 ft 22.35 °S, 49.05 °W | Updated 57 minutes ago

Light Rain
Light Rain Mist
68 °F
Feels Like 68 °F
N
2
Wind Variable Wind from NE

Today
High -- | Low -- °F
--% Chance of Precip.
Yesterday
High -- | Low -- °F
Precip. -- in
6:07 AM 6:11 PM
Waning Crescent, 14% visible
Pressure 29.95 in
Visibility 3.1 miles
Clouds Scattered Clouds 3000 ft
Overcast 8000 ft
Dew Point 68 °F
Humidity 100%
Rainfall 0.00 in
Snow Depth Not available.
UV 0 out of 12
Pollen Not available.
Air Quality Not available.
Flu Activity Not available.
METAR SBBU 200700Z 05002KT 5000 -RA BR SCT030 OVC080 20/20 Q1014

More Conditions Fewer Conditions

Pressure 29.95 in
Visibility 3.1 miles
Clouds Scattered Clouds 3000 ft
Overcast 8000 ft
Dew Point 68 °F
Humidity 100%
Rainfall 0.00 in
Snow Depth Not available.
UV 0 out of 12
Pollen Not available.
Air Quality Not available.
Flu Activity Not available.
METAR SBBU 200700Z 05002KT 5000 -RA BR SCT030 OVC080 20/20 Q1014

More Conditions Fewer Conditions

10-Day Weather Forecast

Almanac

Astronomy

Sep. 20, 2014 Rise Set
Actual Time 6:07 AM BRT 6:11 PM BRT
Civil Twilight 5:44 AM BRT 6:33 PM BRT
Nautical Twilight 5:18 AM BRT 6:59 PM BRT
Astronomical Twilight 4:52 AM BRT 7:26 PM BRT
Moon 3:39 AM BRT 3:19 PM BRT
Length of Visible Light 12h 48m
Length of Day
12h 03m
Tomorrow will be 1m 19s longer.
Waning Crescent, 14% of the Moon is Illuminated
Today
Waning Crescent
Sep 24
New
Oct 1
First Quarter
Oct 8
Full
Oct 15
Last Quarter

Yesterday's Extremes

Country Highs Country Lows

Community

WunderPhotos

Upload Photos

1,754,793 photos uploaded!

WunderBlogs® & News

Nearby

Snow Depth

Not available.

Earthquake Activity

City Distance Mag. Time & Date
No recent earthquake activity has been reported nearby.
Minimum magnitude displayed is 2.5.

Coastal Water Temperatures

Place Temperature
No Stations Reporting

Nearby Weather Stations